sensor_id;sensor_type;location;lat;lon;timestamp;P1;durP1;ratioP1;P2;durP2;ratioP2
6834;SDS011;3455;42.150;24.734;2023-04-01T00:01:27;10.00;;;6.93;;
6834;SDS011;3455;42.150;24.734;2023-04-01T00:03:53;8.20;;;7.37;;
6834;SDS011;3455;42.150;24.734;2023-04-01T00:06:21;8.40;;;6.77;;
6834;SDS011;3455;42.150;24.734;2023-04-01T00:08:49;7.87;;;7.10;;
6834;SDS011;3455;42.150;24.734;2023-04-01T00:11:16;7.83;;;7.20;;
6834;SDS011;3455;42.150;24.734;2023-04-01T00:13:43;8.57;;;7.60;;
6834;SDS011;3455;42.150;24.734;2023-04-01T00:16:10;13.00;;;8.40;;
6834;SDS011;3455;42.150;24.734;2023-04-01T00:18:38;8.20;;;7.27;;
6834;SDS011;3455;42.150;24.734;2023-04-01T00:21:05;8.60;;;7.70;;
6834;SDS011;3455;42.150;24.734;2023-04-01T00:23:32;8.63;;;7.60;;
6834;SDS011;3455;42.150;24.734;2023-04-01T00:25:59;11.30;;;7.80;;
6834;SDS011;3455;42.150;24.734;2023-04-01T00:28:27;11.20;;;8.57;;
6834;SDS011;3455;42.150;24.734;2023-04-01T00:30:54;8.87;;;8.00;;
6834;SDS011;3455;42.150;24.734;2023-04-01T00:33:21;10.63;;;7.60;;
6834;SDS011;3455;42.150;24.734;2023-04-01T00:35:49;9.10;;;7.80;;
6834;SDS011;3455;42.150;24.734;2023-04-01T00:38:16;9.67;;;8.50;;
6834;SDS011;3455;42.150;24.734;2023-04-01T00:40:44;13.37;;;8.50;;
6834;SDS011;3455;42.150;24.734;2023-04-01T00:43:13;9.63;;;8.83;;
6834;SDS011;3455;42.150;24.734;2023-04-01T00:45:44;8.57;;;7.77;;
6834;SDS011;3455;42.150;24.734;2023-04-01T00:48:13;10.13;;;7.87;;
6834;SDS011;3455;42.150;24.734;2023-04-01T00:50:44;9.23;;;7.90;;
6834;SDS011;3455;42.150;24.734;2023-04-01T00:53:15;8.80;;;8.10;;
6834;SDS011;3455;42.150;24.734;2023-04-01T00:55:45;13.53;;;8.53;;
6834;SDS011;3455;42.150;24.734;2023-04-01T00:58:18;9.00;;;7.53;;
6834;SDS011;3455;42.150;24.734;2023-04-01T01:00:49;10.17;;;9.17;;
6834;SDS011;3455;42.150;24.734;2023-04-01T01:03:17;10.20;;;9.20;;
6834;SDS011;3455;42.150;24.734;2023-04-01T01:05:49;12.63;;;8.50;;
6834;SDS011;3455;42.150;24.734;2023-04-01T01:08:31;10.50;;;9.00;;
6834;SDS011;3455;42.150;24.734;2023-04-01T01:11:06;9.63;;;8.23;;
6834;SDS011;3455;42.150;24.734;2023-04-01T01:13:38;10.77;;;8.50;;
6834;SDS011;3455;42.150;24.734;2023-04-01T01:16:15;10.77;;;9.07;;
6834;SDS011;3455;42.150;24.734;2023-04-01T01:18:51;10.57;;;9.20;;
6834;SDS011;3455;42.150;24.734;2023-04-01T01:21:38;9.63;;;8.70;;
6834;SDS011;3455;42.150;24.734;2023-04-01T01:24:28;12.37;;;9.90;;
6834;SDS011;3455;42.150;24.734;2023-04-01T01:27:19;9.47;;;8.77;;
6834;SDS011;3455;42.150;24.734;2023-04-01T01:35:48;10.43;;;9.43;;
6834;SDS011;3455;42.150;24.734;2023-04-01T01:38:16;11.23;;;10.03;;
6834;SDS011;3455;42.150;24.734;2023-04-01T01:40:47;9.67;;;8.70;;
6834;SDS011;3455;42.150;24.734;2023-04-01T01:43:19;12.30;;;9.37;;
6834;SDS011;3455;42.150;24.734;2023-04-01T01:45:50;14.00;;;10.13;;
6834;SDS011;3455;42.150;24.734;2023-04-01T01:48:20;10.13;;;9.10;;
6834;SDS011;3455;42.150;24.734;2023-04-01T01:50:49;13.17;;;9.90;;
6834;SDS011;3455;42.150;24.734;2023-04-01T01:53:16;11.87;;;8.63;;
6834;SDS011;3455;42.150;24.734;2023-04-01T01:55:44;13.03;;;9.33;;
6834;SDS011;3455;42.150;24.734;2023-04-01T01:58:11;11.40;;;9.03;;
6834;SDS011;3455;42.150;24.734;2023-04-01T02:00:43;11.47;;;8.00;;
6834;SDS011;3455;42.150;24.734;2023-04-01T02:03:15;11.23;;;8.73;;
6834;SDS011;3455;42.150;24.734;2023-04-01T02:05:43;16.13;;;9.30;;
6834;SDS011;3455;42.150;24.734;2023-04-01T02:08:12;10.83;;;8.80;;
6834;SDS011;3455;42.150;24.734;2023-04-01T02:10:43;10.70;;;9.03;;
6834;SDS011;3455;42.150;24.734;2023-04-01T02:13:15;10.37;;;8.60;;
6834;SDS011;3455;42.150;24.734;2023-04-01T02:15:48;10.27;;;8.07;;
6834;SDS011;3455;42.150;24.734;2023-04-01T02:18:17;11.50;;;8.50;;
6834;SDS011;3455;42.150;24.734;2023-04-01T02:20:46;10.47;;;8.37;;
6834;SDS011;3455;42.150;24.734;2023-04-01T02:23:14;11.33;;;8.17;;
6834;SDS011;3455;42.150;24.734;2023-04-01T02:25:41;8.43;;;7.73;;
6834;SDS011;3455;42.150;24.734;2023-04-01T02:28:10;9.57;;;7.87;;
6834;SDS011;3455;42.150;24.734;2023-04-01T02:30:41;8.70;;;7.63;;
6834;SDS011;3455;42.150;24.734;2023-04-01T02:33:09;8.57;;;7.70;;
6834;SDS011;3455;42.150;24.734;2023-04-01T02:35:37;9.67;;;8.47;;
6834;SDS011;3455;42.150;24.734;2023-04-01T02:38:03;12.03;;;7.77;;
6834;SDS011;3455;42.150;24.734;2023-04-01T02:40:41;10.33;;;7.83;;
6834;SDS011;3455;42.150;24.734;2023-04-01T02:43:09;11.67;;;8.67;;
6834;SDS011;3455;42.150;24.734;2023-04-01T02:45:36;9.00;;;8.00;;
6834;SDS011;3455;42.150;24.734;2023-04-01T02:48:03;10.03;;;8.70;;
6834;SDS011;3455;42.150;24.734;2023-04-01T02:50:30;10.03;;;8.43;;
6834;SDS011;3455;42.150;24.734;2023-04-01T02:52:57;9.90;;;8.90;;
6834;SDS011;3455;42.150;24.734;2023-04-01T02:55:24;10.33;;;9.57;;
6834;SDS011;3455;42.150;24.734;2023-04-01T02:57:52;11.57;;;10.37;;
6834;SDS011;3455;42.150;24.734;2023-04-01T03:00:19;12.33;;;10.17;;
6834;SDS011;3455;42.150;24.734;2023-04-01T03:02:46;12.60;;;11.10;;
6834;SDS011;3455;42.150;24.734;2023-04-01T03:05:12;13.80;;;10.90;;
6834;SDS011;3455;42.150;24.734;2023-04-01T03:07:40;13.93;;;11.23;;
6834;SDS011;3455;42.150;24.734;2023-04-01T03:10:07;13.80;;;11.37;;
6834;SDS011;3455;42.150;24.734;2023-04-01T03:12:34;14.80;;;12.73;;
6834;SDS011;3455;42.150;24.734;2023-04-01T03:15:03;16.90;;;12.13;;
6834;SDS011;3455;42.150;24.734;2023-04-01T03:17:30;13.63;;;12.30;;
6834;SDS011;3455;42.150;24.734;2023-04-01T03:19:57;12.23;;;11.10;;
6834;SDS011;3455;42.150;24.734;2023-04-01T03:22:23;17.50;;;12.40;;
6834;SDS011;3455;42.150;24.734;2023-04-01T03:24:50;19.37;;;12.63;;
6834;SDS011;3455;42.150;24.734;2023-04-01T03:27:17;15.50;;;12.47;;
6834;SDS011;3455;42.150;24.734;2023-04-01T03:29:43;14.50;;;12.20;;
6834;SDS011;3455;42.150;24.734;2023-04-01T03:32:12;16.80;;;12.13;;
6834;SDS011;3455;42.150;24.734;2023-04-01T03:34:38;14.03;;;11.53;;
6834;SDS011;3455;42.150;24.734;2023-04-01T03:37:05;12.13;;;10.13;;
6834;SDS011;3455;42.150;24.734;2023-04-01T03:39:32;9.90;;;8.90;;
6834;SDS011;3455;42.150;24.734;2023-04-01T03:42:00;10.87;;;8.37;;
6834;SDS011;3455;42.150;24.734;2023-04-01T03:44:29;11.83;;;9.10;;
6834;SDS011;3455;42.150;24.734;2023-04-01T03:46:57;10.27;;;9.33;;
6834;SDS011;3455;42.150;24.734;2023-04-01T03:49:25;13.67;;;9.47;;
6834;SDS011;3455;42.150;24.734;2023-04-01T03:51:51;11.07;;;9.87;;
6834;SDS011;3455;42.150;24.734;2023-04-01T03:54:18;9.87;;;8.97;;
6834;SDS011;3455;42.150;24.734;2023-04-01T03:56:45;11.73;;;9.60;;
6834;SDS011;3455;42.150;24.734;2023-04-01T03:59:12;11.10;;;8.90;;
6834;SDS011;3455;42.150;24.734;2023-04-01T04:01:39;9.93;;;9.03;;
6834;SDS011;3455;42.150;24.734;2023-04-01T04:04:06;16.63;;;9.37;;
6834;SDS011;3455;42.150;24.734;2023-04-01T04:06:34;8.83;;;8.03;;
6834;SDS011;3455;42.150;24.734;2023-04-01T04:09:01;9.07;;;8.27;;
6834;SDS011;3455;42.150;24.734;2023-04-01T04:11:28;10.93;;;9.07;;
6834;SDS011;3455;42.150;24.734;2023-04-01T04:13:57;12.87;;;10.80;;
6834;SDS011;3455;42.150;24.734;2023-04-01T04:16:24;13.23;;;10.93;;
6834;SDS011;3455;42.150;24.734;2023-04-01T04:18:50;9.43;;;8.50;;
6834;SDS011;3455;42.150;24.734;2023-04-01T04:21:17;9.87;;;8.93;;
6834;SDS011;3455;42.150;24.734;2023-04-01T04:23:45;9.63;;;8.53;;
6834;SDS011;3455;42.150;24.734;2023-04-01T04:26:13;9.87;;;8.37;;
6834;SDS011;3455;42.150;24.734;2023-04-01T04:28:41;9.00;;;7.67;;
6834;SDS011;3455;42.150;24.734;2023-04-01T04:31:08;8.83;;;8.10;;
6834;SDS011;3455;42.150;24.734;2023-04-01T04:33:34;11.23;;;7.10;;
6834;SDS011;3455;42.150;24.734;2023-04-01T04:36:02;9.93;;;7.30;;
6834;SDS011;3455;42.150;24.734;2023-04-01T04:38:30;7.97;;;7.23;;
6834;SDS011;3455;42.150;24.734;2023-04-01T04:40:58;7.67;;;6.90;;
6834;SDS011;3455;42.150;24.734;2023-04-01T04:43:25;8.03;;;7.20;;
6834;SDS011;3455;42.150;24.734;2023-04-01T04:45:52;8.87;;;7.73;;
6834;SDS011;3455;42.150;24.734;2023-04-01T04:48:18;8.97;;;7.43;;
6834;SDS011;3455;42.150;24.734;2023-04-01T04:50:46;8.07;;;7.30;;
6834;SDS011;3455;42.150;24.734;2023-04-01T04:53:14;6.77;;;5.13;;
6834;SDS011;3455;42.150;24.734;2023-04-01T04:55:45;7.50;;;5.80;;
6834;SDS011;3455;42.150;24.734;2023-04-01T04:58:13;7.23;;;6.53;;
6834;SDS011;3455;42.150;24.734;2023-04-01T05:00:40;9.10;;;6.57;;
6834;SDS011;3455;42.150;24.734;2023-04-01T05:03:07;6.73;;;6.10;;
6834;SDS011;3455;42.150;24.734;2023-04-01T05:05:35;11.43;;;7.27;;
6834;SDS011;3455;42.150;24.734;2023-04-01T05:08:01;8.17;;;6.13;;
6834;SDS011;3455;42.150;24.734;2023-04-01T05:10:29;9.17;;;5.33;;
6834;SDS011;3455;42.150;24.734;2023-04-01T05:12:57;13.70;;;9.03;;
6834;SDS011;3455;42.150;24.734;2023-04-01T05:15:26;19.23;;;9.63;;
6834;SDS011;3455;42.150;24.734;2023-04-01T05:17:52;18.93;;;10.80;;
6834;SDS011;3455;42.150;24.734;2023-04-01T05:20:19;14.60;;;10.63;;
6834;SDS011;3455;42.150;24.734;2023-04-01T05:22:46;17.50;;;10.77;;
6834;SDS011;3455;42.150;24.734;2023-04-01T05:25:12;21.57;;;10.20;;
6834;SDS011;3455;42.150;24.734;2023-04-01T05:27:39;21.67;;;10.37;;
6834;SDS011;3455;42.150;24.734;2023-04-01T05:30:06;21.07;;;10.80;;
6834;SDS011;3455;42.150;24.734;2023-04-01T05:32:35;19.17;;;11.97;;
6834;SDS011;3455;42.150;24.734;2023-04-01T05:35:02;20.90;;;11.77;;
6834;SDS011;3455;42.150;24.734;2023-04-01T05:37:29;14.63;;;11.53;;
6834;SDS011;3455;42.150;24.734;2023-04-01T05:39:56;20.57;;;11.53;;
6834;SDS011;3455;42.150;24.734;2023-04-01T05:42:23;24.97;;;12.20;;
6834;SDS011;3455;42.150;24.734;2023-04-01T05:44:50;21.17;;;12.83;;
6834;SDS011;3455;42.150;24.734;2023-04-01T05:47:17;20.27;;;11.83;;
6834;SDS011;3455;42.150;24.734;2023-04-01T05:49:45;18.57;;;12.93;;
6834;SDS011;3455;42.150;24.734;2023-04-01T05:52:12;25.20;;;11.17;;
6834;SDS011;3455;42.150;24.734;2023-04-01T05:54:39;22.27;;;11.10;;
6834;SDS011;3455;42.150;24.734;2023-04-01T05:57:05;13.63;;;10.50;;
6834;SDS011;3455;42.150;24.734;2023-04-01T05:59:32;14.37;;;10.07;;
6834;SDS011;3455;42.150;24.734;2023-04-01T06:02:00;19.87;;;9.93;;
6834;SDS011;3455;42.150;24.734;2023-04-01T06:04:28;15.63;;;10.10;;
6834;SDS011;3455;42.150;24.734;2023-04-01T06:07:04;13.03;;;10.40;;
6834;SDS011;3455;42.150;24.734;2023-04-01T06:09:36;31.50;;;19.47;;
6834;SDS011;3455;42.150;24.734;2023-04-01T06:14:59;13.97;;;10.73;;
6834;SDS011;3455;42.150;24.734;2023-04-01T06:17:43;14.53;;;9.57;;
6834;SDS011;3455;42.150;24.734;2023-04-01T06:20:19;11.47;;;9.23;;
6834;SDS011;3455;42.150;24.734;2023-04-01T06:23:02;13.07;;;8.07;;
6834;SDS011;3455;42.150;24.734;2023-04-01T06:25:50;12.47;;;8.17;;
6834;SDS011;3455;42.150;24.734;2023-04-01T06:28:39;10.80;;;6.70;;
6834;SDS011;3455;42.150;24.734;2023-04-01T06:31:22;11.37;;;7.13;;
6834;SDS011;3455;42.150;24.734;2023-04-01T06:34:06;9.00;;;6.97;;
6834;SDS011;3455;42.150;24.734;2023-04-01T06:36:43;6.53;;;6.03;;
6834;SDS011;3455;42.150;24.734;2023-04-01T06:39:24;14.23;;;7.77;;
6834;SDS011;3455;42.150;24.734;2023-04-01T06:42:19;8.63;;;5.73;;
6834;SDS011;3455;42.150;24.734;2023-04-01T06:44:59;8.00;;;5.90;;
6834;SDS011;3455;42.150;24.734;2023-04-01T06:47:39;6.47;;;5.87;;
6834;SDS011;3455;42.150;24.734;2023-04-01T06:50:16;5.97;;;5.30;;
6834;SDS011;3455;42.150;24.734;2023-04-01T06:52:50;10.43;;;6.10;;
6834;SDS011;3455;42.150;24.734;2023-04-01T06:55:29;11.13;;;5.20;;
6834;SDS011;3455;42.150;24.734;2023-04-01T06:58:03;7.17;;;5.40;;
6834;SDS011;3455;42.150;24.734;2023-04-01T07:00:32;6.27;;;5.10;;
6834;SDS011;3455;42.150;24.734;2023-04-01T07:03:06;7.10;;;5.63;;
6834;SDS011;3455;42.150;24.734;2023-04-01T07:05:41;6.73;;;4.80;;
6834;SDS011;3455;42.150;24.734;2023-04-01T07:08:10;5.47;;;4.97;;
6834;SDS011;3455;42.150;24.734;2023-04-01T07:10:43;5.77;;;5.13;;
6834;SDS011;3455;42.150;24.734;2023-04-01T07:13:15;7.13;;;5.33;;
6834;SDS011;3455;42.150;24.734;2023-04-01T07:15:49;14.00;;;7.53;;
6834;SDS011;3455;42.150;24.734;2023-04-01T07:18:25;11.50;;;5.80;;
6834;SDS011;3455;42.150;24.734;2023-04-01T07:20:59;10.50;;;5.97;;
6834;SDS011;3455;42.150;24.734;2023-04-01T07:23:28;5.20;;;4.70;;
6834;SDS011;3455;42.150;24.734;2023-04-01T07:26:03;7.87;;;4.67;;
6834;SDS011;3455;42.150;24.734;2023-04-01T07:28:37;8.17;;;6.03;;
6834;SDS011;3455;42.150;24.734;2023-04-01T07:31:07;5.50;;;5.03;;
6834;SDS011;3455;42.150;24.734;2023-04-01T07:33:44;8.60;;;5.83;;
6834;SDS011;3455;42.150;24.734;2023-04-01T07:36:18;7.47;;;5.30;;
6834;SDS011;3455;42.150;24.734;2023-04-01T07:38:56;6.97;;;5.57;;
6834;SDS011;3455;42.150;24.734;2023-04-01T07:41:31;9.90;;;5.83;;
6834;SDS011;3455;42.150;24.734;2023-04-01T07:44:07;5.23;;;4.77;;
6834;SDS011;3455;42.150;24.734;2023-04-01T07:46:49;5.77;;;5.27;;
6834;SDS011;3455;42.150;24.734;2023-04-01T07:49:22;9.10;;;5.00;;
6834;SDS011;3455;42.150;24.734;2023-04-01T07:51:58;4.80;;;4.40;;
6834;SDS011;3455;42.150;24.734;2023-04-01T07:54:31;6.60;;;4.63;;
6834;SDS011;3455;42.150;24.734;2023-04-01T07:57:07;4.68;;;4.25;;
6834;SDS011;3455;42.150;24.734;2023-04-01T07:59:40;5.27;;;4.43;;
6834;SDS011;3455;42.150;24.734;2023-04-01T08:02:21;4.70;;;4.13;;
6834;SDS011;3455;42.150;24.734;2023-04-01T08:04:57;5.37;;;4.90;;
6834;SDS011;3455;42.150;24.734;2023-04-01T08:07:30;6.07;;;5.00;;
6834;SDS011;3455;42.150;24.734;2023-04-01T08:10:04;7.63;;;5.23;;
6834;SDS011;3455;42.150;24.734;2023-04-01T08:12:44;6.77;;;5.47;;
6834;SDS011;3455;42.150;24.734;2023-04-01T08:15:18;5.97;;;5.37;;
6834;SDS011;3455;42.150;24.734;2023-04-01T08:17:54;6.53;;;5.30;;
6834;SDS011;3455;42.150;24.734;2023-04-01T08:20:33;6.67;;;5.70;;
6834;SDS011;3455;42.150;24.734;2023-04-01T08:23:05;12.63;;;6.37;;
6834;SDS011;3455;42.150;24.734;2023-04-01T08:25:38;5.83;;;5.33;;
6834;SDS011;3455;42.150;24.734;2023-04-01T08:28:15;13.17;;;6.50;;
6834;SDS011;3455;42.150;24.734;2023-04-01T08:30:47;6.97;;;5.80;;
6834;SDS011;3455;42.150;24.734;2023-04-01T08:33:19;8.53;;;6.20;;
6834;SDS011;3455;42.150;24.734;2023-04-01T08:35:51;6.73;;;5.87;;
6834;SDS011;3455;42.150;24.734;2023-04-01T08:38:24;10.87;;;6.13;;
6834;SDS011;3455;42.150;24.734;2023-04-01T08:41:07;11.17;;;8.00;;
6834;SDS011;3455;42.150;24.734;2023-04-01T08:44:04;10.30;;;7.23;;
6834;SDS011;3455;42.150;24.734;2023-04-01T08:46:52;29.30;;;16.27;;
6834;SDS011;3455;42.150;24.734;2023-04-01T08:49:39;17.30;;;9.53;;
6834;SDS011;3455;42.150;24.734;2023-04-01T08:52:24;10.93;;;7.87;;
6834;SDS011;3455;42.150;24.734;2023-04-01T08:58:18;9.90;;;5.87;;
6834;SDS011;3455;42.150;24.734;2023-04-01T09:01:03;6.05;;;5.55;;
6834;SDS011;3455;42.150;24.734;2023-04-01T09:03:43;6.40;;;5.90;;
6834;SDS011;3455;42.150;24.734;2023-04-01T09:06:35;6.38;;;5.75;;
6834;SDS011;3455;42.150;24.734;2023-04-01T09:09:22;7.57;;;5.82;;
6834;SDS011;3455;42.150;24.734;2023-04-01T09:18:25;7.47;;;5.82;;
6834;SDS011;3455;42.150;24.734;2023-04-01T09:21:14;7.95;;;6.25;;
6834;SDS011;3455;42.150;24.734;2023-04-01T09:24:01;6.38;;;5.88;;
6834;SDS011;3455;42.150;24.734;2023-04-01T09:26:56;9.63;;;5.72;;
6834;SDS011;3455;42.150;24.734;2023-04-01T09:29:33;6.60;;;5.63;;
6834;SDS011;3455;42.150;24.734;2023-04-01T09:32:25;7.00;;;5.97;;
6834;SDS011;3455;42.150;24.734;2023-04-01T09:35:17;12.53;;;6.63;;
6834;SDS011;3455;42.150;24.734;2023-04-01T09:37:51;8.83;;;5.40;;
6834;SDS011;3455;42.150;24.734;2023-04-01T09:40:25;6.32;;;5.90;;
6834;SDS011;3455;42.150;24.734;2023-04-01T09:43:06;6.95;;;6.22;;
6834;SDS011;3455;42.150;24.734;2023-04-01T09:45:53;9.13;;;6.63;;
6834;SDS011;3455;42.150;24.734;2023-04-01T09:51:48;15.13;;;8.50;;
6834;SDS011;3455;42.150;24.734;2023-04-01T09:54:31;7.10;;;6.60;;
6834;SDS011;3455;42.150;24.734;2023-04-01T10:00:32;13.63;;;6.65;;
6834;SDS011;3455;42.150;24.734;2023-04-01T10:03:45;14.05;;;10.52;;
6834;SDS011;3455;42.150;24.734;2023-04-01T10:09:54;8.15;;;6.55;;
6834;SDS011;3455;42.150;24.734;2023-04-01T10:12:55;6.82;;;6.15;;
6834;SDS011;3455;42.150;24.734;2023-04-01T10:15:44;24.70;;;17.63;;
6834;SDS011;3455;42.150;24.734;2023-04-01T10:18:31;7.85;;;7.30;;
6834;SDS011;3455;42.150;24.734;2023-04-01T10:21:15;8.23;;;6.22;;
6834;SDS011;3455;42.150;24.734;2023-04-01T10:24:00;8.82;;;7.07;;
6834;SDS011;3455;42.150;24.734;2023-04-01T10:45:31;6.90;;;6.43;;
6834;SDS011;3455;42.150;24.734;2023-04-01T10:51:33;7.30;;;6.60;;
6834;SDS011;3455;42.150;24.734;2023-04-01T10:54:35;6.85;;;6.30;;
6834;SDS011;3455;42.150;24.734;2023-04-01T10:57:15;7.70;;;6.97;;
6834;SDS011;3455;42.150;24.734;2023-04-01T11:00:10;7.25;;;6.65;;
6834;SDS011;3455;42.150;24.734;2023-04-01T11:06:03;11.02;;;9.80;;
6834;SDS011;3455;42.150;24.734;2023-04-01T11:09:09;10.25;;;7.18;;
6834;SDS011;3455;42.150;24.734;2023-04-01T11:12:27;8.18;;;7.47;;
6834;SDS011;3455;42.150;24.734;2023-04-01T11:15:31;9.07;;;6.18;;
6834;SDS011;3455;42.150;24.734;2023-04-01T11:24:45;7.65;;;5.80;;
6834;SDS011;3455;42.150;24.734;2023-04-01T11:27:35;9.07;;;6.90;;
6834;SDS011;3455;42.150;24.734;2023-04-01T11:30:20;6.80;;;6.38;;
6834;SDS011;3455;42.150;24.734;2023-04-01T11:33:00;13.43;;;6.55;;
6834;SDS011;3455;42.150;24.734;2023-04-01T11:35:44;6.35;;;5.80;;
6834;SDS011;3455;42.150;24.734;2023-04-01T11:38:25;8.52;;;5.28;;
6834;SDS011;3455;42.150;24.734;2023-04-01T11:41:03;6.18;;;5.60;;
6834;SDS011;3455;42.150;24.734;2023-04-01T11:43:46;6.05;;;5.28;;
6834;SDS011;3455;42.150;24.734;2023-04-01T11:46:20;8.73;;;5.85;;
6834;SDS011;3455;42.150;24.734;2023-04-01T11:48:56;8.60;;;5.30;;
6834;SDS011;3455;42.150;24.734;2023-04-01T11:51:38;5.78;;;5.15;;
6834;SDS011;3455;42.150;24.734;2023-04-01T11:54:17;5.70;;;4.78;;
6834;SDS011;3455;42.150;24.734;2023-04-01T11:56:57;5.43;;;5.05;;
6834;SDS011;3455;42.150;24.734;2023-04-01T12:02:40;8.07;;;5.50;;
6834;SDS011;3455;42.150;24.734;2023-04-01T12:05:18;7.47;;;5.20;;
6834;SDS011;3455;42.150;24.734;2023-04-01T12:08:13;8.38;;;6.22;;
6834;SDS011;3455;42.150;24.734;2023-04-01T12:10:51;57.38;;;24.98;;
6834;SDS011;3455;42.150;24.734;2023-04-01T12:13:31;11.30;;;6.25;;
6834;SDS011;3455;42.150;24.734;2023-04-01T12:18:58;7.82;;;5.80;;
6834;SDS011;3455;42.150;24.734;2023-04-01T12:21:32;7.70;;;5.40;;
6834;SDS011;3455;42.150;24.734;2023-04-01T12:24:05;8.45;;;6.65;;
6834;SDS011;3455;42.150;24.734;2023-04-01T12:26:56;9.80;;;6.72;;
6834;SDS011;3455;42.150;24.734;2023-04-01T12:29:47;7.65;;;6.40;;
6834;SDS011;3455;42.150;24.734;2023-04-01T12:32:25;8.32;;;5.82;;
6834;SDS011;3455;42.150;24.734;2023-04-01T12:35:11;5.28;;;4.78;;
6834;SDS011;3455;42.150;24.734;2023-04-01T12:37:46;8.30;;;5.43;;
6834;SDS011;3455;42.150;24.734;2023-04-01T12:40:22;6.03;;;5.53;;
6834;SDS011;3455;42.150;24.734;2023-04-01T12:42:59;9.13;;;4.65;;
6834;SDS011;3455;42.150;24.734;2023-04-01T12:45:41;5.68;;;5.15;;
6834;SDS011;3455;42.150;24.734;2023-04-01T12:48:26;5.25;;;4.75;;
6834;SDS011;3455;42.150;24.734;2023-04-01T12:51:24;9.20;;;4.78;;
6834;SDS011;3455;42.150;24.734;2023-04-01T12:56:59;5.13;;;4.72;;
6834;SDS011;3455;42.150;24.734;2023-04-01T12:59:54;5.28;;;4.60;;
6834;SDS011;3455;42.150;24.734;2023-04-01T13:02:39;6.72;;;5.00;;
6834;SDS011;3455;42.150;24.734;2023-04-01T13:05:42;8.57;;;4.00;;
6834;SDS011;3455;42.150;24.734;2023-04-01T13:08:27;4.35;;;3.95;;
6834;SDS011;3455;42.150;24.734;2023-04-01T13:11:13;7.72;;;4.47;;
6834;SDS011;3455;42.150;24.734;2023-04-01T13:13:54;7.53;;;4.90;;
6834;SDS011;3455;42.150;24.734;2023-04-01T13:16:35;6.28;;;5.65;;
6834;SDS011;3455;42.150;24.734;2023-04-01T13:19:06;22.98;;;6.20;;
6834;SDS011;3455;42.150;24.734;2023-04-01T13:21:44;6.82;;;6.13;;
6834;SDS011;3455;42.150;24.734;2023-04-01T13:24:24;11.15;;;5.82;;
6834;SDS011;3455;42.150;24.734;2023-04-01T13:26:58;13.23;;;5.45;;
6834;SDS011;3455;42.150;24.734;2023-04-01T13:29:32;7.80;;;6.05;;
6834;SDS011;3455;42.150;24.734;2023-04-01T13:32:12;6.70;;;5.68;;
6834;SDS011;3455;42.150;24.734;2023-04-01T13:34:49;18.40;;;6.15;;
6834;SDS011;3455;42.150;24.734;2023-04-01T13:37:34;19.65;;;6.32;;
6834;SDS011;3455;42.150;24.734;2023-04-01T13:40:18;21.67;;;7.25;;
6834;SDS011;3455;42.150;24.734;2023-04-01T13:42:53;26.45;;;8.95;;
6834;SDS011;3455;42.150;24.734;2023-04-01T13:45:24;18.67;;;8.43;;
6834;SDS011;3455;42.150;24.734;2023-04-01T13:48:07;20.02;;;8.45;;
6834;SDS011;3455;42.150;24.734;2023-04-01T13:54:05;8.10;;;7.30;;
6834;SDS011;3455;42.150;24.734;2023-04-01T13:56:50;10.75;;;7.57;;
6834;SDS011;3455;42.150;24.734;2023-04-01T14:02:40;14.57;;;6.17;;
6834;SDS011;3455;42.150;24.734;2023-04-01T14:05:29;9.83;;;4.27;;
6834;SDS011;3455;42.150;24.734;2023-04-01T14:08:09;6.30;;;3.07;;
6834;SDS011;3455;42.150;24.734;2023-04-01T14:10:45;4.43;;;3.13;;
6834;SDS011;3455;42.150;24.734;2023-04-01T14:13:21;8.40;;;6.07;;
6834;SDS011;3455;42.150;24.734;2023-04-01T14:16:00;2.80;;;2.50;;
6834;SDS011;3455;42.150;24.734;2023-04-01T14:18:47;2.90;;;2.60;;
6834;SDS011;3455;42.150;24.734;2023-04-01T14:21:29;3.43;;;3.13;;
6834;SDS011;3455;42.150;24.734;2023-04-01T14:24:06;3.67;;;2.50;;
6834;SDS011;3455;42.150;24.734;2023-04-01T14:26:54;3.15;;;2.55;;
6834;SDS011;3455;42.150;24.734;2023-04-01T14:29:36;5.28;;;2.85;;
6834;SDS011;3455;42.150;24.734;2023-04-01T14:32:13;7.47;;;3.15;;
6834;SDS011;3455;42.150;24.734;2023-04-01T14:34:50;6.18;;;3.15;;
6834;SDS011;3455;42.150;24.734;2023-04-01T14:37:31;3.10;;;2.80;;
6834;SDS011;3455;42.150;24.734;2023-04-01T14:43:13;7.35;;;3.22;;
6834;SDS011;3455;42.150;24.734;2023-04-01T14:45:55;4.60;;;3.00;;
6834;SDS011;3455;42.150;24.734;2023-04-01T14:48:32;3.30;;;3.10;;
6834;SDS011;3455;42.150;24.734;2023-04-01T14:51:03;3.50;;;2.92;;
6834;SDS011;3455;42.150;24.734;2023-04-01T14:53:37;3.43;;;3.00;;
6834;SDS011;3455;42.150;24.734;2023-04-01T14:56:10;2.58;;;2.38;;
6834;SDS011;3455;42.150;24.734;2023-04-01T14:58:43;3.03;;;2.42;;
6834;SDS011;3455;42.150;24.734;2023-04-01T15:01:21;3.77;;;2.97;;
6834;SDS011;3455;42.150;24.734;2023-04-01T15:04:02;3.23;;;3.03;;
6834;SDS011;3455;42.150;24.734;2023-04-01T15:09:38;4.57;;;3.40;;
6834;SDS011;3455;42.150;24.734;2023-04-01T15:12:16;4.03;;;3.63;;
6834;SDS011;3455;42.150;24.734;2023-04-01T15:14:57;12.57;;;7.37;;
6834;SDS011;3455;42.150;24.734;2023-04-01T15:17:48;3.23;;;3.03;;
6834;SDS011;3455;42.150;24.734;2023-04-01T15:20:33;2.57;;;2.37;;
6834;SDS011;3455;42.150;24.734;2023-04-01T15:23:16;2.10;;;1.97;;
6834;SDS011;3455;42.150;24.734;2023-04-01T15:26:09;3.83;;;3.63;;
6834;SDS011;3455;42.150;24.734;2023-04-01T15:28:44;2.40;;;2.00;;
6834;SDS011;3455;42.150;24.734;2023-04-01T15:31:25;3.40;;;2.63;;
6834;SDS011;3455;42.150;24.734;2023-04-01T15:34:03;2.77;;;2.23;;
6834;SDS011;3455;42.150;24.734;2023-04-01T15:36:43;2.40;;;2.20;;
6834;SDS011;3455;42.150;24.734;2023-04-01T15:39:17;3.33;;;2.90;;
6834;SDS011;3455;42.150;24.734;2023-04-01T15:41:59;2.73;;;2.53;;
6834;SDS011;3455;42.150;24.734;2023-04-01T15:44:50;3.60;;;3.10;;
6834;SDS011;3455;42.150;24.734;2023-04-01T15:47:33;4.57;;;3.57;;
6834;SDS011;3455;42.150;24.734;2023-04-01T15:53:16;4.93;;;3.83;;
6834;SDS011;3455;42.150;24.734;2023-04-01T15:55:54;6.13;;;3.80;;
6834;SDS011;3455;42.150;24.734;2023-04-01T15:58:30;6.10;;;4.27;;
6834;SDS011;3455;42.150;24.734;2023-04-01T16:01:10;4.47;;;4.03;;
6834;SDS011;3455;42.150;24.734;2023-04-01T16:03:53;3.73;;;3.50;;
6834;SDS011;3455;42.150;24.734;2023-04-01T16:06:43;3.90;;;3.40;;
6834;SDS011;3455;42.150;24.734;2023-04-01T16:09:37;3.97;;;3.67;;
6834;SDS011;3455;42.150;24.734;2023-04-01T16:12:15;6.90;;;3.97;;
6834;SDS011;3455;42.150;24.734;2023-04-01T16:14:50;4.40;;;4.00;;
6834;SDS011;3455;42.150;24.734;2023-04-01T16:17:30;6.13;;;3.67;;
6834;SDS011;3455;42.150;24.734;2023-04-01T16:20:17;4.30;;;4.00;;
6834;SDS011;3455;42.150;24.734;2023-04-01T16:22:49;4.77;;;4.30;;
6834;SDS011;3455;42.150;24.734;2023-04-01T16:25:26;5.00;;;3.37;;
6834;SDS011;3455;42.150;24.734;2023-04-01T16:28:03;3.80;;;3.30;;
6834;SDS011;3455;42.150;24.734;2023-04-01T16:30:42;4.20;;;3.83;;
6834;SDS011;3455;42.150;24.734;2023-04-01T16:33:15;4.13;;;3.77;;
6834;SDS011;3455;42.150;24.734;2023-04-01T16:35:52;3.77;;;3.40;;
6834;SDS011;3455;42.150;24.734;2023-04-01T16:38:24;3.93;;;3.50;;
6834;SDS011;3455;42.150;24.734;2023-04-01T16:41:03;4.03;;;3.00;;
6834;SDS011;3455;42.150;24.734;2023-04-01T16:43:38;3.50;;;3.20;;
6834;SDS011;3455;42.150;24.734;2023-04-01T16:46:18;4.23;;;3.37;;
6834;SDS011;3455;42.150;24.734;2023-04-01T16:48:58;2.63;;;2.43;;
6834;SDS011;3455;42.150;24.734;2023-04-01T16:51:34;3.27;;;2.33;;
6834;SDS011;3455;42.150;24.734;2023-04-01T16:54:10;4.03;;;2.37;;
6834;SDS011;3455;42.150;24.734;2023-04-01T16:56:45;3.90;;;2.40;;
6834;SDS011;3455;42.150;24.734;2023-04-01T16:59:18;4.67;;;2.83;;
6834;SDS011;3455;42.150;24.734;2023-04-01T17:01:52;2.60;;;2.40;;
6834;SDS011;3455;42.150;24.734;2023-04-01T17:04:25;3.03;;;2.67;;
6834;SDS011;3455;42.150;24.734;2023-04-01T17:07:03;4.83;;;3.47;;
6834;SDS011;3455;42.150;24.734;2023-04-01T17:09:40;4.70;;;4.33;;
6834;SDS011;3455;42.150;24.734;2023-04-01T17:12:19;4.20;;;3.90;;